sensor_id;sensor_type;location;lat;lon;timestamp;temperature;humidity
12827;DHT22;66927;48.812;9.118;2023-03-21T00:00:32;10.80;99.90
12827;DHT22;66927;48.812;9.118;2023-03-21T00:02:58;10.70;99.90
12827;DHT22;66927;48.812;9.118;2023-03-21T00:05:24;10.70;99.90
12827;DHT22;66927;48.812;9.118;2023-03-21T00:07:50;10.70;99.90
12827;DHT22;66927;48.812;9.118;2023-03-21T00:10:16;10.70;99.90
12827;DHT22;66927;48.812;9.118;2023-03-21T00:12:42;10.60;99.90
12827;DHT22;66927;48.812;9.118;2023-03-21T00:15:09;10.60;99.90
12827;DHT22;66927;48.812;9.118;2023-03-21T00:17:36;10.60;99.90
12827;DHT22;66927;48.812;9.118;2023-03-21T00:20:04;10.50;99.90
12827;DHT22;66927;48.812;9.118;2023-03-21T00:22:30;10.50;99.90
12827;DHT22;66927;48.812;9.118;2023-03-21T00:24:56;10.50;99.90
12827;DHT22;66927;48.812;9.118;2023-03-21T00:27:22;10.30;99.90
12827;DHT22;66927;48.812;9.118;2023-03-21T00:29:48;10.50;99.90
12827;DHT22;66927;48.812;9.118;2023-03-21T00:32:15;10.40;99.90
12827;DHT22;66927;48.812;9.118;2023-03-21T00:34:41;10.50;99.90
12827;DHT22;66927;48.812;9.118;2023-03-21T00:37:08;10.30;99.90
12827;DHT22;66927;48.812;9.118;2023-03-21T00:39:34;10.40;99.90
12827;DHT22;66927;48.812;9.118;2023-03-21T00:42:00;10.40;99.90
12827;DHT22;66927;48.812;9.118;2023-03-21T00:44:26;10.40;99.90
12827;DHT22;66927;48.812;9.118;2023-03-21T00:46:52;10.40;99.90
12827;DHT22;66927;48.812;9.118;2023-03-21T00:49:18;10.50;99.90
12827;DHT22;66927;48.812;9.118;2023-03-21T00:51:45;10.40;99.90
12827;DHT22;66927;48.812;9.118;2023-03-21T00:54:11;10.40;99.90
12827;DHT22;66927;48.812;9.118;2023-03-21T00:56:37;10.50;99.90
12827;DHT22;66927;48.812;9.118;2023-03-21T00:59:03;10.40;99.90
12827;DHT22;66927;48.812;9.118;2023-03-21T01:01:29;10.40;99.90
12827;DHT22;66927;48.812;9.118;2023-03-21T01:04:00;10.40;99.90
12827;DHT22;66927;48.812;9.118;2023-03-21T01:06:36;10.40;99.90
12827;DHT22;66927;48.812;9.118;2023-03-21T01:09:15;10.40;99.90
12827;DHT22;66927;48.812;9.118;2023-03-21T01:11:42;10.30;99.90
12827;DHT22;66927;48.812;9.118;2023-03-21T01:14:08;10.30;99.90
12827;DHT22;66927;48.812;9.118;2023-03-21T01:16:34;10.30;99.90
12827;DHT22;66927;48.812;9.118;2023-03-21T01:19:01;10.30;99.90
12827;DHT22;66927;48.812;9.118;2023-03-21T01:21:27;10.40;99.90
12827;DHT22;66927;48.812;9.118;2023-03-21T01:23:53;10.30;99.90
12827;DHT22;66927;48.812;9.118;2023-03-21T01:26:18;10.30;99.90
12827;DHT22;66927;48.812;9.118;2023-03-21T01:28:44;10.30;99.90
12827;DHT22;66927;48.812;9.118;2023-03-21T01:31:12;10.30;99.90
12827;DHT22;66927;48.812;9.118;2023-03-21T01:33:38;10.30;99.90
12827;DHT22;66927;48.812;9.118;2023-03-21T01:36:04;10.20;99.90
12827;DHT22;66927;48.812;9.118;2023-03-21T01:38:30;10.20;99.90
12827;DHT22;66927;48.812;9.118;2023-03-21T01:40:59;10.20;99.90
12827;DHT22;66927;48.812;9.118;2023-03-21T01:43:33;10.20;99.90
12827;DHT22;66927;48.812;9.118;2023-03-21T01:48:53;10.20;99.90
12827;DHT22;66927;48.812;9.118;2023-03-21T01:51:21;10.20;99.90
12827;DHT22;66927;48.812;9.118;2023-03-21T01:53:47;10.20;99.90
12827;DHT22;66927;48.812;9.118;2023-03-21T01:56:29;10.20;99.90
12827;DHT22;66927;48.812;9.118;2023-03-21T01:59:01;10.20;99.90
12827;DHT22;66927;48.812;9.118;2023-03-21T02:01:29;10.20;99.90
12827;DHT22;66927;48.812;9.118;2023-03-21T02:03:56;10.10;99.90
12827;DHT22;66927;48.812;9.118;2023-03-21T02:09:19;10.20;99.90
12827;DHT22;66927;48.812;9.118;2023-03-21T02:11:46;10.10;99.90
12827;DHT22;66927;48.812;9.118;2023-03-21T02:14:14;10.10;99.90
12827;DHT22;66927;48.812;9.118;2023-03-21T02:17:39;10.10;99.90
12827;DHT22;66927;48.812;9.118;2023-03-21T02:20:11;10.10;99.90
12827;DHT22;66927;48.812;9.118;2023-03-21T02:25:55;10.10;99.90
12827;DHT22;66927;48.812;9.118;2023-03-21T02:39:23;10.00;99.90
12827;DHT22;66927;48.812;9.118;2023-03-21T02:42:01;9.90;99.90
12827;DHT22;66927;48.812;9.118;2023-03-21T02:44:55;9.90;99.90
12827;DHT22;66927;48.812;9.118;2023-03-21T02:47:32;9.90;99.90
12827;DHT22;66927;48.812;9.118;2023-03-21T02:52:36;9.90;99.90
12827;DHT22;66927;48.812;9.118;2023-03-21T02:55:05;9.90;99.90
12827;DHT22;66927;48.812;9.118;2023-03-21T02:57:32;9.90;99.90
12827;DHT22;66927;48.812;9.118;2023-03-21T02:59:59;9.90;99.90
12827;DHT22;66927;48.812;9.118;2023-03-21T03:02:27;9.90;99.90
12827;DHT22;66927;48.812;9.118;2023-03-21T03:04:53;9.90;99.90
12827;DHT22;66927;48.812;9.118;2023-03-21T03:07:38;9.80;99.90
12827;DHT22;66927;48.812;9.118;2023-03-21T03:10:15;9.80;99.90
12827;DHT22;66927;48.812;9.118;2023-03-21T03:18:19;9.80;99.90
12827;DHT22;66927;48.812;9.118;2023-03-21T03:23:45;9.80;99.90
12827;DHT22;66927;48.812;9.118;2023-03-21T03:28:53;9.70;99.90
12827;DHT22;66927;48.812;9.118;2023-03-21T03:31:30;9.70;99.90
12827;DHT22;66927;48.812;9.118;2023-03-21T03:34:01;9.80;99.90
12827;DHT22;66927;48.812;9.118;2023-03-21T03:36:34;9.90;99.90
12827;DHT22;66927;48.812;9.118;2023-03-21T03:39:06;9.80;99.90
12827;DHT22;66927;48.812;9.118;2023-03-21T03:41:44;9.80;99.90
12827;DHT22;66927;48.812;9.118;2023-03-21T03:44:11;9.70;99.90
12827;DHT22;66927;48.812;9.118;2023-03-21T03:46:46;9.70;99.90
12827;DHT22;66927;48.812;9.118;2023-03-21T03:49:20;9.70;99.90
12827;DHT22;66927;48.812;9.118;2023-03-21T03:51:53;9.70;99.90
12827;DHT22;66927;48.812;9.118;2023-03-21T03:54:23;9.70;99.90
12827;DHT22;66927;48.812;9.118;2023-03-21T03:56:51;9.60;99.90
12827;DHT22;66927;48.812;9.118;2023-03-21T03:59:16;9.60;99.90
12827;DHT22;66927;48.812;9.118;2023-03-21T04:01:49;9.60;99.90
12827;DHT22;66927;48.812;9.118;2023-03-21T04:04:15;9.60;99.90
12827;DHT22;66927;48.812;9.118;2023-03-21T04:06:44;9.60;99.90
12827;DHT22;66927;48.812;9.118;2023-03-21T04:09:16;9.60;99.90
12827;DHT22;66927;48.812;9.118;2023-03-21T04:11:43;9.60;99.90
12827;DHT22;66927;48.812;9.118;2023-03-21T04:14:09;9.50;99.90
12827;DHT22;66927;48.812;9.118;2023-03-21T04:16:35;9.50;99.90
12827;DHT22;66927;48.812;9.118;2023-03-21T04:19:00;9.50;99.90
12827;DHT22;66927;48.812;9.118;2023-03-21T04:21:26;9.50;99.90
12827;DHT22;66927;48.812;9.118;2023-03-21T04:23:53;9.50;99.90
12827;DHT22;66927;48.812;9.118;2023-03-21T04:26:20;9.40;99.90
12827;DHT22;66927;48.812;9.118;2023-03-21T04:28:47;9.40;99.90
12827;DHT22;66927;48.812;9.118;2023-03-21T04:31:12;9.30;99.90
12827;DHT22;66927;48.812;9.118;2023-03-21T04:33:38;9.20;99.90
12827;DHT22;66927;48.812;9.118;2023-03-21T04:36:05;9.10;99.90
12827;DHT22;66927;48.812;9.118;2023-03-21T04:38:34;9.10;99.90
12827;DHT22;66927;48.812;9.118;2023-03-21T04:41:01;9.10;99.90
12827;DHT22;66927;48.812;9.118;2023-03-21T04:43:27;9.00;99.90
12827;DHT22;66927;48.812;9.118;2023-03-21T04:45:53;9.00;99.90
12827;DHT22;66927;48.812;9.118;2023-03-21T04:48:20;8.90;99.90
12827;DHT22;66927;48.812;9.118;2023-03-21T04:50:49;8.90;99.90
12827;DHT22;66927;48.812;9.118;2023-03-21T04:53:16;9.00;99.90
12827;DHT22;66927;48.812;9.118;2023-03-21T04:55:42;9.00;99.90
12827;DHT22;66927;48.812;9.118;2023-03-21T04:58:07;9.10;99.90
12827;DHT22;66927;48.812;9.118;2023-03-21T05:00:33;9.10;99.90
12827;DHT22;66927;48.812;9.118;2023-03-21T05:03:06;9.10;99.90
12827;DHT22;66927;48.812;9.118;2023-03-21T05:05:38;9.00;99.90
12827;DHT22;66927;48.812;9.118;2023-03-21T05:08:04;8.90;99.90
12827;DHT22;66927;48.812;9.118;2023-03-21T05:10:31;8.90;99.90
12827;DHT22;66927;48.812;9.118;2023-03-21T05:12:56;8.80;99.90
12827;DHT22;66927;48.812;9.118;2023-03-21T05:15:22;8.80;99.90
12827;DHT22;66927;48.812;9.118;2023-03-21T05:17:48;8.80;99.90
12827;DHT22;66927;48.812;9.118;2023-03-21T05:20:14;8.80;99.90
12827;DHT22;66927;48.812;9.118;2023-03-21T05:22:42;8.80;99.90
12827;DHT22;66927;48.812;9.118;2023-03-21T05:25:11;8.70;99.90
12827;DHT22;66927;48.812;9.118;2023-03-21T05:27:37;8.70;99.90
12827;DHT22;66927;48.812;9.118;2023-03-21T05:30:15;8.70;99.90
12827;DHT22;66927;48.812;9.118;2023-03-21T05:32:40;8.60;99.90
12827;DHT22;66927;48.812;9.118;2023-03-21T05:35:06;8.60;99.90
12827;DHT22;66927;48.812;9.118;2023-03-21T05:37:32;8.60;99.90
12827;DHT22;66927;48.812;9.118;2023-03-21T05:39:58;8.60;99.90
12827;DHT22;66927;48.812;9.118;2023-03-21T05:42:24;8.60;99.90
12827;DHT22;66927;48.812;9.118;2023-03-21T05:44:50;8.60;99.90
12827;DHT22;66927;48.812;9.118;2023-03-21T05:47:16;8.70;99.90
12827;DHT22;66927;48.812;9.118;2023-03-21T05:49:43;8.70;99.90
12827;DHT22;66927;48.812;9.118;2023-03-21T05:52:08;8.70;99.90
12827;DHT22;66927;48.812;9.118;2023-03-21T05:54:34;8.70;99.90
12827;DHT22;66927;48.812;9.118;2023-03-21T05:57:01;8.80;99.90
12827;DHT22;66927;48.812;9.118;2023-03-21T05:59:26;8.90;99.90
12827;DHT22;66927;48.812;9.118;2023-03-21T06:01:52;8.90;99.90
12827;DHT22;66927;48.812;9.118;2023-03-21T06:04:18;9.00;99.90
12827;DHT22;66927;48.812;9.118;2023-03-21T06:06:43;9.00;99.90
12827;DHT22;66927;48.812;9.118;2023-03-21T06:09:09;9.00;99.90
12827;DHT22;66927;48.812;9.118;2023-03-21T06:11:37;9.00;99.90
12827;DHT22;66927;48.812;9.118;2023-03-21T06:14:03;9.00;99.90
12827;DHT22;66927;48.812;9.118;2023-03-21T06:16:29;9.00;99.90
12827;DHT22;66927;48.812;9.118;2023-03-21T06:18:55;9.00;99.90
12827;DHT22;66927;48.812;9.118;2023-03-21T06:21:20;9.00;99.90
12827;DHT22;66927;48.812;9.118;2023-03-21T06:23:46;9.00;99.90
12827;DHT22;66927;48.812;9.118;2023-03-21T06:26:12;9.00;99.90
12827;DHT22;66927;48.812;9.118;2023-03-21T06:28:38;9.00;99.90
12827;DHT22;66927;48.812;9.118;2023-03-21T06:31:04;8.90;99.90
12827;DHT22;66927;48.812;9.118;2023-03-21T06:33:29;8.90;99.90
12827;DHT22;66927;48.812;9.118;2023-03-21T06:35:56;8.90;99.90
12827;DHT22;66927;48.812;9.118;2023-03-21T06:38:23;8.90;99.90
12827;DHT22;66927;48.812;9.118;2023-03-21T06:40:49;8.90;99.90
12827;DHT22;66927;48.812;9.118;2023-03-21T06:43:15;8.90;99.90
12827;DHT22;66927;48.812;9.118;2023-03-21T06:45:41;8.90;99.90
12827;DHT22;66927;48.812;9.118;2023-03-21T06:48:07;8.90;99.90
12827;DHT22;66927;48.812;9.118;2023-03-21T06:50:32;8.90;99.90
12827;DHT22;66927;48.812;9.118;2023-03-21T06:52:58;8.90;99.90
12827;DHT22;66927;48.812;9.118;2023-03-21T06:55:24;9.00;99.90
12827;DHT22;66927;48.812;9.118;2023-03-21T06:57:55;9.00;99.90
12827;DHT22;66927;48.812;9.118;2023-03-21T07:00:22;9.00;99.90
12827;DHT22;66927;48.812;9.118;2023-03-21T07:02:48;9.00;99.90
12827;DHT22;66927;48.812;9.118;2023-03-21T07:05:15;9.00;99.90
12827;DHT22;66927;48.812;9.118;2023-03-21T07:07:40;9.10;99.90
12827;DHT22;66927;48.812;9.118;2023-03-21T07:10:07;9.10;99.90
12827;DHT22;66927;48.812;9.118;2023-03-21T07:12:33;9.10;99.90
12827;DHT22;66927;48.812;9.118;2023-03-21T07:15:04;9.20;99.90
12827;DHT22;66927;48.812;9.118;2023-03-21T07:17:31;9.30;99.90
12827;DHT22;66927;48.812;9.118;2023-03-21T07:19:58;9.30;99.90
12827;DHT22;66927;48.812;9.118;2023-03-21T07:22:23;9.40;99.90
12827;DHT22;66927;48.812;9.118;2023-03-21T07:24:49;9.50;99.90
12827;DHT22;66927;48.812;9.118;2023-03-21T07:27:16;9.50;99.90
12827;DHT22;66927;48.812;9.118;2023-03-21T07:29:42;9.60;99.90
12827;DHT22;66927;48.812;9.118;2023-03-21T07:32:10;9.60;99.90
12827;DHT22;66927;48.812;9.118;2023-03-21T07:34:36;9.70;99.90
12827;DHT22;66927;48.812;9.118;2023-03-21T07:37:02;9.70;99.90
12827;DHT22;66927;48.812;9.118;2023-03-21T07:39:28;9.80;99.90
12827;DHT22;66927;48.812;9.118;2023-03-21T07:41:54;9.90;99.90
12827;DHT22;66927;48.812;9.118;2023-03-21T07:44:23;10.10;99.90
12827;DHT22;66927;48.812;9.118;2023-03-21T07:46:49;10.20;99.90
12827;DHT22;66927;48.812;9.118;2023-03-21T07:49:15;10.50;99.90
12827;DHT22;66927;48.812;9.118;2023-03-21T07:51:40;10.60;99.90
12827;DHT22;66927;48.812;9.118;2023-03-21T07:54:06;10.80;99.90
12827;DHT22;66927;48.812;9.118;2023-03-21T07:56:32;10.90;99.90
12827;DHT22;66927;48.812;9.118;2023-03-21T07:58:58;11.10;99.90
12827;DHT22;66927;48.812;9.118;2023-03-21T08:01:24;11.20;99.90
12827;DHT22;66927;48.812;9.118;2023-03-21T08:03:50;11.30;99.90
12827;DHT22;66927;48.812;9.118;2023-03-21T08:06:19;11.40;99.90
12827;DHT22;66927;48.812;9.118;2023-03-21T08:08:45;11.60;99.90
12827;DHT22;66927;48.812;9.118;2023-03-21T08:11:11;11.70;99.90
12827;DHT22;66927;48.812;9.118;2023-03-21T08:13:37;11.80;99.90
12827;DHT22;66927;48.812;9.118;2023-03-21T08:16:03;11.90;99.90
12827;DHT22;66927;48.812;9.118;2023-03-21T08:18:29;12.10;99.90
12827;DHT22;66927;48.812;9.118;2023-03-21T08:20:56;12.20;99.90
12827;DHT22;66927;48.812;9.118;2023-03-21T08:23:22;12.30;99.90
12827;DHT22;66927;48.812;9.118;2023-03-21T08:25:53;12.40;99.90
12827;DHT22;66927;48.812;9.118;2023-03-21T08:28:19;12.60;99.90
12827;DHT22;66927;48.812;9.118;2023-03-21T08:30:45;12.70;99.90
12827;DHT22;66927;48.812;9.118;2023-03-21T08:33:11;12.80;99.90
12827;DHT22;66927;48.812;9.118;2023-03-21T08:35:38;13.00;99.90
12827;DHT22;66927;48.812;9.118;2023-03-21T08:38:04;13.10;99.90
12827;DHT22;66927;48.812;9.118;2023-03-21T08:40:31;13.30;99.90
12827;DHT22;66927;48.812;9.118;2023-03-21T08:42:57;13.40;99.90
12827;DHT22;66927;48.812;9.118;2023-03-21T08:45:23;13.70;99.90
12827;DHT22;66927;48.812;9.118;2023-03-21T08:47:50;13.80;99.90
12827;DHT22;66927;48.812;9.118;2023-03-21T08:50:21;13.90;99.90
12827;DHT22;66927;48.812;9.118;2023-03-21T08:52:48;13.90;99.90
12827;DHT22;66927;48.812;9.118;2023-03-21T08:55:15;14.00;99.90
12827;DHT22;66927;48.812;9.118;2023-03-21T08:57:41;14.10;99.90
12827;DHT22;66927;48.812;9.118;2023-03-21T09:00:09;14.30;99.90
12827;DHT22;66927;48.812;9.118;2023-03-21T09:02:41;14.60;99.90
12827;DHT22;66927;48.812;9.118;2023-03-21T09:05:08;14.80;99.90
12827;DHT22;66927;48.812;9.118;2023-03-21T09:07:36;14.90;99.90
12827;DHT22;66927;48.812;9.118;2023-03-21T09:10:03;15.10;99.90
12827;DHT22;66927;48.812;9.118;2023-03-21T09:12:29;15.30;99.90
12827;DHT22;66927;48.812;9.118;2023-03-21T09:14:55;15.50;99.40
12827;DHT22;66927;48.812;9.118;2023-03-21T09:17:21;15.80;98.20
12827;DHT22;66927;48.812;9.118;2023-03-21T09:19:46;15.90;97.60
12827;DHT22;66927;48.812;9.118;2023-03-21T09:22:13;16.00;97.60
12827;DHT22;66927;48.812;9.118;2023-03-21T09:24:42;16.10;96.60
12827;DHT22;66927;48.812;9.118;2023-03-21T09:27:08;16.20;96.40
12827;DHT22;66927;48.812;9.118;2023-03-21T09:29:34;16.30;95.40
12827;DHT22;66927;48.812;9.118;2023-03-21T09:32:00;16.30;94.30
12827;DHT22;66927;48.812;9.118;2023-03-21T09:34:26;16.30;93.90
12827;DHT22;66927;48.812;9.118;2023-03-21T09:36:52;16.40;94.50
12827;DHT22;66927;48.812;9.118;2023-03-21T09:39:21;16.60;92.50
12827;DHT22;66927;48.812;9.118;2023-03-21T09:41:51;16.80;92.80
12827;DHT22;66927;48.812;9.118;2023-03-21T09:47:09;17.10;92.60
12827;DHT22;66927;48.812;9.118;2023-03-21T09:49:41;17.40;91.50
12827;DHT22;66927;48.812;9.118;2023-03-21T09:52:18;17.70;91.00
12827;DHT22;66927;48.812;9.118;2023-03-21T09:54:45;17.70;91.00
12827;DHT22;66927;48.812;9.118;2023-03-21T09:59:57;18.10;90.40
12827;DHT22;66927;48.812;9.118;2023-03-21T10:02:47;18.30;87.90
12827;DHT22;66927;48.812;9.118;2023-03-21T10:05:21;18.00;85.90
12827;DHT22;66927;48.812;9.118;2023-03-21T10:07:56;18.10;89.10
12827;DHT22;66927;48.812;9.118;2023-03-21T10:10:29;18.10;89.50
12827;DHT22;66927;48.812;9.118;2023-03-21T10:12:56;18.20;88.90
12827;DHT22;66927;48.812;9.118;2023-03-21T10:15:25;18.50;88.50
12827;DHT22;66927;48.812;9.118;2023-03-21T10:18:01;18.80;88.50
12827;DHT22;66927;48.812;9.118;2023-03-21T10:20:34;19.30;87.30
12827;DHT22;66927;48.812;9.118;2023-03-21T10:23:03;19.80;85.00
12827;DHT22;66927;48.812;9.118;2023-03-21T10:25:33;20.20;83.00
12827;DHT22;66927;48.812;9.118;2023-03-21T10:28:00;20.60;82.60
12827;DHT22;66927;48.812;9.118;2023-03-21T10:30:52;21.00;81.30
12827;DHT22;66927;48.812;9.118;2023-03-21T10:33:23;21.40;80.10
12827;DHT22;66927;48.812;9.118;2023-03-21T10:35:59;21.70;77.60
12827;DHT22;66927;48.812;9.118;2023-03-21T10:38:25;22.00;76.30
12827;DHT22;66927;48.812;9.118;2023-03-21T10:40:52;22.20;75.50
12827;DHT22;66927;48.812;9.118;2023-03-21T10:43:38;22.50;74.30
12827;DHT22;66927;48.812;9.118;2023-03-21T10:46:16;22.60;75.20
12827;DHT22;66927;48.812;9.118;2023-03-21T10:48:43;22.60;70.70
12827;DHT22;66927;48.812;9.118;2023-03-21T10:51:18;22.80;72.00
12827;DHT22;66927;48.812;9.118;2023-03-21T10:53:57;23.00;70.20
12827;DHT22;66927;48.812;9.118;2023-03-21T10:56:29;23.00;70.60
12827;DHT22;66927;48.812;9.118;2023-03-21T10:58:57;23.00;69.40
12827;DHT22;66927;48.812;9.118;2023-03-21T11:01:35;22.90;70.50
12827;DHT22;66927;48.812;9.118;2023-03-21T11:04:07;22.80;67.60
12827;DHT22;66927;48.812;9.118;2023-03-21T11:06:38;22.80;67.90
12827;DHT22;66927;48.812;9.118;2023-03-21T11:09:14;22.40;67.30
12827;DHT22;66927;48.812;9.118;2023-03-21T11:12:01;22.50;69.10
12827;DHT22;66927;48.812;9.118;2023-03-21T11:14:38;22.60;68.80
12827;DHT22;66927;48.812;9.118;2023-03-21T11:17:28;22.70;69.60
12827;DHT22;66927;48.812;9.118;2023-03-21T11:20:00;22.70;70.40
12827;DHT22;66927;48.812;9.118;2023-03-21T11:22:36;22.80;68.00
12827;DHT22;66927;48.812;9.118;2023-03-21T11:25:07;22.90;67.90
12827;DHT22;66927;48.812;9.118;2023-03-21T11:27:33;22.80;67.10
12827;DHT22;66927;48.812;9.118;2023-03-21T11:30:02;22.70;68.20
12827;DHT22;66927;48.812;9.118;2023-03-21T11:32:35;22.30;68.30
12827;DHT22;66927;48.812;9.118;2023-03-21T11:35:05;22.10;68.40
12827;DHT22;66927;48.812;9.118;2023-03-21T11:37:41;21.70;70.20
12827;DHT22;66927;48.812;9.118;2023-03-21T11:40:29;21.40;71.50
12827;DHT22;66927;48.812;9.118;2023-03-21T11:45:28;20.70;73.30
12827;DHT22;66927;48.812;9.118;2023-03-21T11:47:59;20.50;71.40
12827;DHT22;66927;48.812;9.118;2023-03-21T11:50:55;20.40;73.10
12827;DHT22;66927;48.812;9.118;2023-03-21T11:53:39;20.20;75.50
12827;DHT22;66927;48.812;9.118;2023-03-21T12:01:58;20.00;76.60
12827;DHT22;66927;48.812;9.118;2023-03-21T12:07:01;20.00;74.00
12827;DHT22;66927;48.812;9.118;2023-03-21T12:09:45;19.90;76.50
12827;DHT22;66927;48.812;9.118;2023-03-21T12:12:40;19.80;73.90
12827;DHT22;66927;48.812;9.118;2023-03-21T12:15:18;19.70;75.50
12827;DHT22;66927;48.812;9.118;2023-03-21T12:18:10;19.70;74.70
12827;DHT22;66927;48.812;9.118;2023-03-21T12:31:27;19.50;74.00
12827;DHT22;66927;48.812;9.118;2023-03-21T12:33:57;19.30;67.70
12827;DHT22;66927;48.812;9.118;2023-03-21T12:37:16;18.80;67.90
12827;DHT22;66927;48.812;9.118;2023-03-21T12:39:47;18.60;66.60
12827;DHT22;66927;48.812;9.118;2023-03-21T12:45:00;18.50;68.20
12827;DHT22;66927;48.812;9.118;2023-03-21T12:47:29;18.90;69.40
12827;DHT22;66927;48.812;9.118;2023-03-21T12:52:42;19.60;65.90
12827;DHT22;66927;48.812;9.118;2023-03-21T12:55:29;20.20;65.20
12827;DHT22;66927;48.812;9.118;2023-03-21T12:58:17;21.20;65.20
12827;DHT22;66927;48.812;9.118;2023-03-21T13:00:47;22.50;61.00
12827;DHT22;66927;48.812;9.118;2023-03-21T13:03:18;24.00;58.20
12827;DHT22;66927;48.812;9.118;2023-03-21T13:06:12;24.40;57.20
12827;DHT22;66927;48.812;9.118;2023-03-21T13:08:57;24.50;57.10
12827;DHT22;66927;48.812;9.118;2023-03-21T13:11:27;24.30;57.30
12827;DHT22;66927;48.812;9.118;2023-03-21T13:14:13;24.10;58.90
12827;DHT22;66927;48.812;9.118;2023-03-21T13:24:40;22.70;59.30
12827;DHT22;66927;48.812;9.118;2023-03-21T13:27:40;22.50;59.70
12827;DHT22;66927;48.812;9.118;2023-03-21T13:30:26;22.20;59.50
12827;DHT22;66927;48.812;9.118;2023-03-21T13:35:40;21.60;63.20
12827;DHT22;66927;48.812;9.118;2023-03-21T13:38:17;21.40;62.90
12827;DHT22;66927;48.812;9.118;2023-03-21T13:40:56;21.10;64.70
12827;DHT22;66927;48.812;9.118;2023-03-21T14:02:30;20.90;73.20
12827;DHT22;66927;48.812;9.118;2023-03-21T14:05:01;21.20;71.20
12827;DHT22;66927;48.812;9.118;2023-03-21T14:07:37;21.30;71.80
12827;DHT22;66927;48.812;9.118;2023-03-21T14:10:16;21.20;72.00
12827;DHT22;66927;48.812;9.118;2023-03-21T14:12:43;21.10;72.40
12827;DHT22;66927;48.812;9.118;2023-03-21T14:17:55;20.90;72.50
12827;DHT22;66927;48.812;9.118;2023-03-21T14:20:25;21.10;72.20
12827;DHT22;66927;48.812;9.118;2023-03-21T14:22:51;21.40;72.00
12827;DHT22;66927;48.812;9.118;2023-03-21T14:25:20;21.90;71.00
12827;DHT22;66927;48.812;9.118;2023-03-21T14:27:49;22.20;70.10
12827;DHT22;66927;48.812;9.118;2023-03-21T14:30:26;22.20;69.80
12827;DHT22;66927;48.812;9.118;2023-03-21T14:32:59;22.00;69.30
12827;DHT22;66927;48.812;9.118;2023-03-21T14:35:29;21.90;71.00
12827;DHT22;66927;48.812;9.118;2023-03-21T14:38:05;21.80;70.10
12827;DHT22;66927;48.812;9.118;2023-03-21T14:40:34;21.70;70.10
12827;DHT22;66927;48.812;9.118;2023-03-21T14:43:05;21.50;71.10
12827;DHT22;66927;48.812;9.118;2023-03-21T14:45:33;21.40;71.60
12827;DHT22;66927;48.812;9.118;2023-03-21T14:48:04;21.30;73.00
12827;DHT22;66927;48.812;9.118;2023-03-21T14:50:35;21.30;73.30
12827;DHT22;66927;48.812;9.118;2023-03-21T14:53:03;21.50;72.90
12827;DHT22;66927;48.812;9.118;2023-03-21T14:55:29;21.70;73.10
12827;DHT22;66927;48.812;9.118;2023-03-21T14:57:55;21.90;71.60
12827;DHT22;66927;48.812;9.118;2023-03-21T15:00:25;22.00;70.60
12827;DHT22;66927;48.812;9.118;2023-03-21T15:02:52;21.90;71.00
12827;DHT22;66927;48.812;9.118;2023-03-21T15:05:34;21.70;71.80
12827;DHT22;66927;48.812;9.118;2023-03-21T15:10:31;21.30;72.40
12827;DHT22;66927;48.812;9.118;2023-03-21T15:13:00;21.10;72.90
12827;DHT22;66927;48.812;9.118;2023-03-21T15:15:28;21.00;74.10
12827;DHT22;66927;48.812;9.118;2023-03-21T15:17:57;20.90;74.40
12827;DHT22;66927;48.812;9.118;2023-03-21T15:20:28;20.90;75.20
12827;DHT22;66927;48.812;9.118;2023-03-21T15:23:27;20.80;75.50
12827;DHT22;66927;48.812;9.118;2023-03-21T15:25:53;20.90;76.90
12827;DHT22;66927;48.812;9.118;2023-03-21T15:28:19;21.10;76.90
12827;DHT22;66927;48.812;9.118;2023-03-21T15:30:50;21.40;75.50
12827;DHT22;66927;48.812;9.118;2023-03-21T15:33:17;21.60;74.60
12827;DHT22;66927;48.812;9.118;2023-03-21T15:35:48;21.70;74.30
12827;DHT22;66927;48.812;9.118;2023-03-21T15:40:49;21.20;74.90
12827;DHT22;66927;48.812;9.118;2023-03-21T15:43:18;20.60;76.70
12827;DHT22;66927;48.812;9.118;2023-03-21T15:45:52;20.40;77.20
12827;DHT22;66927;48.812;9.118;2023-03-21T15:48:26;20.00;78.60
12827;DHT22;66927;48.812;9.118;2023-03-21T15:51:03;19.70;80.20
12827;DHT22;66927;48.812;9.118;2023-03-21T15:53:35;19.30;80.60
12827;DHT22;66927;48.812;9.118;2023-03-21T15:56:03;19.10;81.70
12827;DHT22;66927;48.812;9.118;2023-03-21T15:58:38;18.80;82.90
12827;DHT22;66927;48.812;9.118;2023-03-21T16:01:11;18.40;83.20
12827;DHT22;66927;48.812;9.118;2023-03-21T16:03:45;18.30;85.00
12827;DHT22;66927;48.812;9.118;2023-03-21T16:06:19;18.10;85.70
12827;DHT22;66927;48.812;9.118;2023-03-21T16:08:47;17.90;86.50
12827;DHT22;66927;48.812;9.118;2023-03-21T16:13:49;17.60;87.30
12827;DHT22;66927;48.812;9.118;2023-03-21T16:16:27;17.50;87.70
12827;DHT22;66927;48.812;9.118;2023-03-21T16:18:54;17.30;88.80
12827;DHT22;66927;48.812;9.118;2023-03-21T16:21:22;17.20;88.60
12827;DHT22;66927;48.812;9.118;2023-03-21T16:23:48;17.10;90.20
12827;DHT22;66927;48.812;9.118;2023-03-21T16:26:31;17.00;89.90
12827;DHT22;66927;48.812;9.118;2023-03-21T16:28:57;16.90;90.20
12827;DHT22;66927;48.812;9.118;2023-03-21T16:31:25;16.80;90.50
12827;DHT22;66927;48.812;9.118;2023-03-21T16:33:51;16.70;90.40
12827;DHT22;66927;48.812;9.118;2023-03-21T16:36:37;16.60;90.90
12827;DHT22;66927;48.812;9.118;2023-03-21T16:39:15;16.50;90.80
12827;DHT22;66927;48.812;9.118;2023-03-21T16:41:41;16.40;91.20
12827;DHT22;66927;48.812;9.118;2023-03-21T16:44:07;16.30;91.50
12827;DHT22;66927;48.812;9.118;2023-03-21T16:46:32;16.20;91.50
12827;DHT22;66927;48.812;9.118;2023-03-21T16:48:58;16.10;91.50
12827;DHT22;66927;48.812;9.118;2023-03-21T16:51:26;16.00;91.90
12827;DHT22;66927;48.812;9.118;2023-03-21T16:53:55;16.00;92.10
12827;DHT22;66927;48.812;9.118;2023-03-21T16:56:29;15.90;91.90
12827;DHT22;66927;48.812;9.118;2023-03-21T16:58:55;15.80;92.50
12827;DHT22;66927;48.812;9.118;2023-03-21T17:01:23;15.70;92.60
12827;DHT22;66927;48.812;9.118;2023-03-21T17:03:51;15.60;92.90
12827;DHT22;66927;48.812;9.118;2023-03-21T17:06:26;15.60;93.00
12827;DHT22;66927;48.812;9.118;2023-03-21T17:08:53;15.50;93.60
12827;DHT22;66927;48.812;9.118;2023-03-21T17:11:21;15.40;93.70
12827;DHT22;66927;48.812;9.118;2023-03-21T17:13:50;15.40;93.80
12827;DHT22;66927;48.812;9.118;2023-03-21T17:16:18;15.30;94.00
12827;DHT22;66927;48.812;9.118;2023-03-21T17:18:45;15.20;94.00
12827;DHT22;66927;48.812;9.118;2023-03-21T17:21:23;15.20;94.20
12827;DHT22;66927;48.812;9.118;2023-03-21T17:23:49;15.10;94.30
12827;DHT22;66927;48.812;9.118;2023-03-21T17:26:23;15.10;94.40
12827;DHT22;66927;48.812;9.118;2023-03-21T17:28:49;15.00;94.40
12827;DHT22;66927;48.812;9.118;2023-03-21T17:31:16;14.90;94.50
12827;DHT22;66927;48.812;9.118;2023-03-21T17:33:43;14.90;95.10
12827;DHT22;66927;48.812;9.118;2023-03-21T17:36:23;14.80;94.90
12827;DHT22;66927;48.812;9.118;2023-03-21T17:38:51;14.80;95.20